Time;durP1;ratioP1;P1;durP2;ratioP2;P2;SDS_P1;SDS_P2;PMS_P1;PMS_P2;Temp;Humidity;BMP_temperature;BMP_pressure;BME280_temperature;BME280_humidity;BME280_pressure;Samples;Min_cycle;Max_cycle;Signal;HPM_P1;HPM_P2
2021/01/16 00:00:59;;;;;;;15.53;6.08;;;;;;;-6.95;61.33;99849.19;1696978;83;21326;-64
2021/01/16 00:03:27;;;;;;;14.90;5.85;;;;;;;-6.91;61.06;99843.19;1696982;83;21064;-63
2021/01/16 00:05:56;;;;;;;15.43;5.65;;;;;;;-6.89;60.85;99843.94;1696976;83;21773;-63
2021/01/16 00:08:24;;;;;;;16.42;6.30;;;;;;;-6.87;61.00;99840.70;1696961;83;21301;-62
2021/01/16 00:10:53;;;;;;;15.45;6.33;;;;;;;-6.84;60.76;99842.69;1697101;83;21354;-63
2021/01/16 00:13:25;;;;;;;15.25;5.65;;;;;;;-6.92;60.21;99846.80;1696930;83;21108;-64
2021/01/16 00:15:52;;;;;;;15.35;6.10;;;;;;;-7.08;60.13;99842.97;1696986;84;21332;-64
2021/01/16 00:18:22;;;;;;;14.70;6.10;;;;;;;-7.16;60.55;99842.10;1696982;83;21097;-64
2021/01/16 00:20:53;;;;;;;16.77;6.78;;;;;;;-7.13;60.57;99839.27;1697106;83;21315;-62
2021/01/16 00:23:25;;;;;;;16.65;6.05;;;;;;;-7.19;60.44;99849.43;1697062;83;21077;-63
2021/01/16 00:25:53;;;;;;;21.75;6.62;;;;;;;-7.27;60.48;99853.06;1697063;84;21335;-63
2021/01/16 00:28:25;;;;;;;18.62;5.50;;;;;;;-7.46;60.68;99852.06;1697057;84;21466;-63
2021/01/16 00:30:52;;;;;;;16.15;6.15;;;;;;;-7.54;60.97;99849.88;1697022;83;21061;-64
2021/01/16 00:33:24;;;;;;;15.80;6.10;;;;;;;-7.56;61.38;99858.91;1696988;84;21199;-63
2021/01/16 00:35:54;;;;;;;13.98;5.15;;;;;;;-7.57;61.47;99863.37;1697111;84;21287;-63
2021/01/16 00:38:24;;;;;;;16.60;6.42;;;;;;;-7.57;61.75;99870.03;1697016;84;21856;-63
2021/01/16 00:40:52;;;;;;;18.30;5.90;;;;;;;-7.56;61.69;99868.22;1696426;83;21317;-64
2021/01/16 00:43:19;;;;;;;18.48;5.42;;;;;;;-7.62;61.59;99867.28;1697091;83;21341;-64
2021/01/16 00:45:48;;;;;;;16.48;5.90;;;;;;;-7.73;61.55;99866.63;1696946;83;21892;-64
2021/01/16 00:48:18;;;;;;;13.68;5.60;;;;;;;-7.86;61.68;99854.53;1697083;83;21037;-63
2021/01/16 00:50:47;;;;;;;17.15;4.95;;;;;;;-7.90;61.81;99854.81;1696979;83;21325;-63
2021/01/16 00:53:15;;;;;;;13.45;4.83;;;;;;;-7.92;62.29;99854.05;1670047;85;21291;-64
2021/01/16 00:55:52;;;;;;;18.48;6.78;;;;;;;-7.92;62.28;99850.06;1689632;84;21036;-64
2021/01/16 00:58:20;;;;;;;15.23;5.92;;;;;;;-7.97;62.01;99856.14;1689892;83;21090;-63
2021/01/16 01:00:50;;;;;;;17.55;6.25;;;;;;;-8.00;62.09;99862.50;1688964;84;21091;-64
2021/01/16 01:03:22;;;;;;;16.55;5.80;;;;;;;-8.10;61.75;99864.87;1672012;85;21059;-64
2021/01/16 01:05:49;;;;;;;12.75;4.80;;;;;;;-8.23;61.55;99875.00;1690022;84;21475;-64
2021/01/16 01:08:17;;;;;;;12.20;4.78;;;;;;;-8.42;61.99;99868.64;1690117;83;21306;-65
2021/01/16 01:10:46;;;;;;;11.75;4.92;;;;;;;-8.42;62.39;99864.66;1672216;85;21377;-63
2021/01/16 01:13:14;;;;;;;12.55;4.55;;;;;;;-8.31;62.46;99864.84;1689984;83;21359;-64
2021/01/16 01:15:41;;;;;;;12.43;4.30;;;;;;;-8.25;62.22;99866.27;1689998;85;21087;-63
2021/01/16 01:18:09;;;;;;;11.00;4.25;;;;;;;-8.27;61.88;99865.03;1690192;84;21219;-64
2021/01/16 01:20:37;;;;;;;10.35;4.42;;;;;;;-8.29;61.73;99869.58;1690072;84;21055;-64
2021/01/16 01:23:05;;;;;;;9.88;4.20;;;;;;;-8.29;61.81;99867.41;1690013;85;21218;-63
2021/01/16 01:25:32;;;;;;;12.07;3.72;;;;;;;-8.28;61.73;99868.64;1689966;85;21728;-63
2021/01/16 01:28:01;;;;;;;9.88;3.87;;;;;;;-8.24;61.47;99871.49;1689981;84;21400;-63
2021/01/16 01:30:30;;;;;;;11.15;4.22;;;;;;;-8.22;61.15;99862.95;1689898;85;21245;-63
2021/01/16 01:32:58;;;;;;;13.43;4.50;;;;;;;-8.36;60.61;99870.45;1689974;83;21047;-63
2021/01/16 01:35:26;;;;;;;12.33;4.53;;;;;;;-8.58;60.71;99867.80;1689921;85;21313;-63
2021/01/16 01:37:56;;;;;;;9.50;4.53;;;;;;;-8.73;60.90;99864.25;1689921;83;21317;-62
2021/01/16 01:40:26;;;;;;;10.98;4.35;;;;;;;-8.86;61.08;99864.11;1690042;83;21075;-64
2021/01/16 01:42:55;;;;;;;12.60;3.83;;;;;;;-8.92;60.94;99863.14;1689929;85;21064;-64
2021/01/16 01:45:24;;;;;;;13.80;4.20;;;;;;;-9.00;61.25;99870.68;1689889;83;21107;-64
2021/01/16 01:47:51;;;;;;;11.12;3.52;;;;;;;-8.95;61.36;99876.58;1689966;85;21066;-64
2021/01/16 01:50:20;;;;;;;10.43;3.45;;;;;;;-8.92;60.86;99868.91;1689960;84;21043;-65
2021/01/16 01:52:50;;;;;;;8.95;3.72;;;;;;;-9.05;60.58;99886.02;1691769;82;21848;-63
2021/01/16 01:55:18;;;;;;;8.45;3.37;;;;;;;-9.23;60.42;99887.02;1696715;84;21438;-64
2021/01/16 01:57:51;;;;;;;9.55;3.35;;;;;;;-9.41;60.54;99876.48;1689150;83;21053;-63
2021/01/16 02:02:58;;;;;;;11.88;3.87;;;;;;;-9.30;61.02;99882.52;1689509;85;21203;-62
2021/01/16 02:05:26;;;;;;;8.58;3.55;;;;;;;-9.18;60.92;99879.66;1689526;83;21801;-63
2021/01/16 02:07:53;;;;;;;11.18;4.08;;;;;;;-9.15;60.65;99880.81;1689611;83;21244;-63
2021/01/16 02:10:23;;;;;;;9.85;3.33;;;;;;;-9.28;60.28;99878.84;1689358;83;21430;-63
2021/01/16 02:12:53;;;;;;;8.03;2.70;;;;;;;-9.36;60.35;99889.02;1689448;83;21101;-63
2021/01/16 02:15:58;;;;;;;10.72;3.67;;;;;;;-9.37;60.59;99890.44;1689457;83;21856;-65
2021/01/16 02:18:37;;;;;;;10.98;4.15;;;;;;;-9.36;60.29;99894.80;1689482;84;21299;-64
2021/01/16 02:21:06;;;;;;;7.70;3.00;;;;;;;-9.43;60.45;99892.09;1669991;85;21089;-64
2021/01/16 02:23:55;;;;;;;9.50;3.98;;;;;;;-9.38;60.29;99896.21;1689535;84;21085;-64
2021/01/16 02:27:05;;;;;;;11.48;3.72;;;;;;;-9.47;60.08;99899.84;1673018;84;21395;-65
2021/01/16 02:29:32;;;;;;;8.35;2.52;;;;;;;-9.54;60.35;99901.11;1689482;83;21289;-62
2021/01/16 02:32:03;;;;;;;7.20;3.70;;;;;;;-9.52;60.26;99901.89;1647427;85;21349;-64
2021/01/16 02:34:35;;;;;;;10.75;3.80;;;;;;;-9.65;60.25;99895.07;1669708;84;21256;-64
2021/01/16 02:37:43;;;;;;;10.23;3.90;;;;;;;-9.70;60.44;99899.77;1689461;84;21066;-66
2021/01/16 02:40:40;;;;;;;11.85;3.90;;;;;;;-9.76;60.60;99904.89;1689456;84;21097;-64
2021/01/16 02:43:34;;;;;;;11.70;4.35;;;;;;;-9.79;60.76;99898.91;1689450;83;21341;-64
2021/01/16 02:46:21;;;;;;;12.00;4.53;;;;;;;-9.79;61.02;99895.78;1689318;84;21054;-64
2021/01/16 02:49:15;;;;;;;13.60;4.70;;;;;;;-9.77;61.10;99911.13;1689503;83;21064;-63
2021/01/16 02:52:06;;;;;;;14.78;4.50;;;;;;;-9.74;60.88;99907.50;1689066;84;21231;-63
2021/01/16 02:54:39;;;;;;;8.98;3.50;;;;;;;-9.75;60.86;99913.27;1689440;85;21398;-64
2021/01/16 02:57:09;;;;;;;9.00;3.62;;;;;;;-9.76;59.56;99911.52;1689587;83;22150;-64
2021/01/16 02:59:39;;;;;;;8.95;3.02;;;;;;;-9.81;59.25;99912.70;1689468;85;21061;-63
2021/01/16 03:02:10;;;;;;;7.78;2.35;;;;;;;-9.82;58.91;99912.31;1689439;83;21645;-63
2021/01/16 03:04:38;;;;;;;7.50;2.70;;;;;;;-9.86;58.79;99908.12;1689474;84;21333;-64
2021/01/16 03:07:08;;;;;;;9.08;3.15;;;;;;;-9.95;58.64;99914.30;1689514;85;21041;-64
2021/01/16 03:09:36;;;;;;;9.88;3.47;;;;;;;-10.06;58.71;99912.67;1689424;84;21263;-63
2021/01/16 03:12:06;;;;;;;11.78;4.25;;;;;;;-10.08;58.75;99907.06;1689615;83;21075;-63
2021/01/16 03:14:38;;;;;;;10.45;3.45;;;;;;;-10.10;58.71;99902.32;1689591;85;21414;-64
2021/01/16 03:17:14;;;;;;;10.93;3.50;;;;;;;-10.11;58.71;99902.78;1689562;84;21321;-64
2021/01/16 03:19:44;;;;;;;11.20;3.60;;;;;;;-10.14;58.60;99912.69;1689677;84;21057;-63
2021/01/16 03:22:21;;;;;;;6.08;2.17;;;;;;;-10.23;58.22;99911.88;1689586;84;21038;-63
2021/01/16 03:24:53;;;;;;;12.40;3.42;;;;;;;-10.32;58.07;99910.55;1689818;85;21063;-63
2021/01/16 03:27:25;;;;;;;12.28;3.85;;;;;;;-10.47;58.33;99923.22;1689579;85;21057;-64
2021/01/16 03:29:53;;;;;;;10.63;3.40;;;;;;;-10.54;58.37;99927.11;1689670;83;21288;-63
2021/01/16 03:32:20;;;;;;;14.35;3.77;;;;;;;-10.61;58.44;99935.35;1689547;85;21110;-63
2021/01/16 03:34:48;;;;;;;13.40;4.03;;;;;;;-10.68;58.45;99929.12;1689564;84;21074;-63
2021/01/16 03:37:16;;;;;;;9.25;3.15;;;;;;;-10.79;58.34;99931.44;1689530;84;21308;-63
2021/01/16 03:39:45;;;;;;;12.13;4.08;;;;;;;-10.88;58.51;99922.16;1689144;85;21066;-63
2021/01/16 03:42:13;;;;;;;9.95;4.00;;;;;;;-10.90;58.41;99921.38;1689465;85;21834;-63
2021/01/16 03:44:40;;;;;;;9.53;3.42;;;;;;;-10.94;58.80;99915.38;1689483;85;21065;-63
2021/01/16 03:47:07;;;;;;;7.53;3.20;;;;;;;-10.89;58.78;99913.83;1689586;84;21115;-64
2021/01/16 03:49:35;;;;;;;15.03;3.90;;;;;;;-10.90;58.71;99923.56;1689508;83;21077;-63
2021/01/16 03:52:04;;;;;;;10.48;4.03;;;;;;;-10.95;58.38;99933.97;1689583;85;21096;-63
2021/01/16 03:54:32;;;;;;;12.63;3.65;;;;;;;-11.02;58.21;99932.55;1689679;84;21352;-63
2021/01/16 03:57:00;;;;;;;8.48;2.52;;;;;;;-11.09;58.10;99934.61;1689546;85;21070;-64
2021/01/16 03:59:28;;;;;;;15.15;4.92;;;;;;;-11.10;57.99;99934.68;1689538;84;21259;-65
2021/01/16 04:01:55;;;;;;;11.75;4.50;;;;;;;-11.28;57.98;99928.02;1689521;84;21838;-63
2021/01/16 04:04:23;;;;;;;13.05;4.35;;;;;;;-11.40;58.17;99941.81;1689778;83;21180;-65
2021/01/16 04:06:51;;;;;;;15.48;4.55;;;;;;;-11.48;58.10;99946.59;1689674;84;21351;-64
2021/01/16 04:09:18;;;;;;;10.40;3.70;;;;;;;-11.59;58.32;99952.83;1689545;84;21120;-64
2021/01/16 04:11:45;;;;;;;12.00;4.90;;;;;;;-11.58;58.41;99957.19;1689485;85;21327;-63
2021/01/16 04:14:13;;;;;;;10.15;3.77;;;;;;;-11.65;58.51;99957.08;1689442;84;21458;-64
2021/01/16 04:16:40;;;;;;;10.93;4.15;;;;;;;-11.68;58.47;99957.22;1689109;83;21062;-63
2021/01/16 04:19:07;;;;;;;14.20;4.37;;;;;;;-11.74;58.63;99956.99;1689533;85;21482;-63
2021/01/16 04:21:35;;;;;;;9.15;3.83;;;;;;;-11.74;58.53;99951.71;1704790;84;21195;-63
2021/01/16 04:24:03;;;;;;;12.28;4.75;;;;;;;-11.70;58.46;99955.96;1705791;84;21297;-63
2021/01/16 04:26:30;;;;;;;11.97;4.05;;;;;;;-11.73;58.40;99956.53;1705713;84;21098;-63
2021/01/16 04:28:57;;;;;;;12.03;3.58;;;;;;;-11.81;58.36;99962.19;1705785;84;21771;-63
2021/01/16 04:31:24;;;;;;;11.60;4.58;;;;;;;-11.86;58.43;99967.67;1705734;84;21462;-62
2021/01/16 04:33:53;;;;;;;12.28;3.80;;;;;;;-11.89;58.62;99961.21;1705770;84;21066;-63
2021/01/16 04:36:20;;;;;;;11.93;4.00;;;;;;;-11.80;58.83;99972.30;1705808;84;21084;-63
2021/01/16 04:38:48;;;;;;;8.00;2.80;;;;;;;-11.78;58.37;99982.33;1705828;84;21306;-63
2021/01/16 04:41:15;;;;;;;8.87;3.23;;;;;;;-11.85;57.85;99977.31;1705877;84;21217;-64
2021/01/16 04:43:43;;;;;;;8.93;3.20;;;;;;;-12.02;57.64;99977.20;1683558;84;21246;-64
2021/01/16 04:46:11;;;;;;;12.07;3.77;;;;;;;-12.14;57.86;99972.45;1705768;84;21223;-64
2021/01/16 04:48:38;;;;;;;11.20;3.70;;;;;;;-12.18;58.14;99974.83;1705772;83;21298;-62
2021/01/16 04:51:06;;;;;;;12.10;4.03;;;;;;;-12.17;58.28;99976.08;1705799;84;21331;-64
2021/01/16 04:53:40;;;;;;;9.60;3.60;;;;;;;-12.15;57.86;99980.44;1705827;83;21359;-64
2021/01/16 04:56:09;;;;;;;9.00;3.05;;;;;;;-12.22;57.97;99979.84;1705910;83;21071;-62
2021/01/16 04:58:39;;;;;;;10.97;3.90;;;;;;;-12.20;58.12;99986.77;1705753;84;21731;-63
2021/01/16 05:01:10;;;;;;;9.23;3.37;;;;;;;-12.32;57.94;99989.08;1673999;85;21293;-63
2021/01/16 05:03:42;;;;;;;8.57;3.10;;;;;;;-12.43;58.10;99997.87;1674066;85;21329;-63
2021/01/16 05:06:12;;;;;;;11.90;3.67;;;;;;;-12.47;58.26;100006.84;1674109;84;21794;-63
2021/01/16 05:08:42;;;;;;;14.47;4.27;;;;;;;-12.49;58.44;100015.67;1646611;87;21299;-64
2021/01/16 05:11:26;;;;;;;11.57;3.80;;;;;;;-12.51;58.39;100013.55;1673830;85;21778;-63
2021/01/16 05:14:15;;;;;;;10.90;3.60;;;;;;;-12.52;58.50;100022.39;1673915;85;21333;-62
2021/01/16 05:16:58;;;;;;;13.10;3.37;;;;;;;-12.57;58.54;100017.77;1673953;85;21304;-62
2021/01/16 05:19:32;;;;;;;9.63;3.12;;;;;;;-12.57;58.79;100016.45;1645191;87;21083;-64
2021/01/16 05:22:00;;;;;;;12.03;4.07;;;;;;;-12.70;58.79;100017.86;1646377;87;21060;-65
2021/01/16 05:24:27;;;;;;;10.50;3.37;;;;;;;-12.82;59.11;100026.27;1673886;85;21048;-62
2021/01/16 05:27:06;;;;;;;7.83;3.33;;;;;;;-12.91;59.25;100023.53;1673802;85;21815;-64
2021/01/16 05:29:35;;;;;;;13.57;4.83;;;;;;;-12.96;59.50;100039.12;1645261;87;21882;-63
2021/01/16 05:32:04;;;;;;;13.90;4.40;;;;;;;-13.04;59.65;100034.58;1673885;85;21214;-63
2021/01/16 05:34:33;;;;;;;14.07;4.37;;;;;;;-13.06;59.90;100032.46;1674513;85;21071;-63
2021/01/16 05:37:02;;;;;;;10.67;4.00;;;;;;;-13.09;59.90;100045.30;1674459;85;21324;-64
2021/01/16 05:39:31;;;;;;;8.60;3.00;;;;;;;-13.18;60.05;100039.95;1674451;85;21172;-64
2021/01/16 05:42:04;;;;;;;12.03;2.73;;;;;;;-13.20;60.21;100040.47;1674125;85;21092;-62
2021/01/16 05:44:33;;;;;;;13.73;4.63;;;;;;;-13.18;60.33;100045.23;1674457;84;21257;-64
2021/01/16 05:47:00;;;;;;;10.80;3.77;;;;;;;-13.16;60.30;100048.62;1674472;85;21304;-63
2021/01/16 05:49:28;;;;;;;9.20;3.27;;;;;;;-13.09;60.34;100039.17;1674457;85;21182;-63
2021/01/16 05:51:56;;;;;;;16.77;5.30;;;;;;;-13.09;60.13;100043.98;1674349;85;21810;-64
2021/01/16 05:54:28;;;;;;;11.53;4.10;;;;;;;-13.11;60.11;100041.87;1678825;85;21245;-63
2021/01/16 05:56:55;;;;;;;11.67;4.13;;;;;;;-13.08;60.02;100043.52;1662223;85;21069;-63
2021/01/16 05:59:24;;;;;;;9.80;3.33;;;;;;;-13.14;59.47;100034.08;1662518;85;21317;-63
2021/01/16 06:01:51;;;;;;;11.30;3.37;;;;;;;-13.19;59.32;100057.14;1661693;85;21066;-63
2021/01/16 06:04:20;;;;;;;11.53;4.20;;;;;;;-13.27;59.10;100040.77;1661476;85;21098;-65
2021/01/16 06:06:48;;;;;;;13.00;4.20;;;;;;;-13.33;59.22;100049.76;1689051;85;21342;-63
2021/01/16 06:09:19;;;;;;;13.97;4.50;;;;;;;-13.31;59.38;100050.56;1689097;85;21376;-63
2021/01/16 06:11:50;;;;;;;9.63;3.20;;;;;;;-13.24;59.44;100055.14;1689149;83;21818;-63
2021/01/16 06:14:18;;;;;;;13.17;4.97;;;;;;;-13.17;59.16;100066.72;1688958;83;21380;-65
2021/01/16 06:16:53;;;;;;;10.77;3.90;;;;;;;-13.17;58.87;100068.03;1689152;85;21803;-63
2021/01/16 06:19:24;;;;;;;16.03;3.40;;;;;;;-13.17;58.61;100073.30;1689098;85;21257;-63
2021/01/16 06:21:53;;;;;;;11.73;3.90;;;;;;;-13.16;58.59;100082.04;1689288;83;21211;-62
2021/01/16 06:24:22;;;;;;;16.77;4.73;;;;;;;-13.23;58.00;100095.07;1689200;83;21361;-63
2021/01/16 06:26:59;;;;;;;11.13;3.70;;;;;;;-13.51;57.81;100091.27;1689214;85;21796;-63
2021/01/16 06:29:34;;;;;;;14.83;4.65;;;;;;;-13.63;58.20;100088.61;1689381;83;21359;-63
2021/01/16 06:32:07;;;;;;;12.05;3.55;;;;;;;-13.62;58.32;100089.02;1689465;83;21302;-65
2021/01/16 06:34:38;;;;;;;7.17;2.90;;;;;;;-13.62;57.94;100092.11;1689207;85;21081;-66
2021/01/16 06:37:15;;;;;;;8.93;3.47;;;;;;;-13.76;57.59;100100.45;1689059;85;21307;-63
2021/01/16 06:39:44;;;;;;;11.70;4.65;;;;;;;-13.85;57.56;100097.69;1689386;85;21297;-64
2021/01/16 06:42:21;;;;;;;13.63;4.23;;;;;;;-13.93;57.79;100107.61;1689277;85;21313;-63
2021/01/16 06:44:48;;;;;;;10.90;3.55;;;;;;;-13.99;57.74;100106.50;1689341;85;21777;-64
2021/01/16 06:47:16;;;;;;;11.90;3.73;;;;;;;-14.02;57.69;100111.87;1689214;84;21042;-64
2021/01/16 06:49:44;;;;;;;11.33;4.47;;;;;;;-14.08;57.43;100100.23;1689201;85;21297;-61
2021/01/16 06:52:12;;;;;;;21.13;5.37;;;;;;;-14.08;57.27;100108.59;1661789;85;21106;-64
2021/01/16 06:54:39;;;;;;;13.13;4.20;;;;;;;-14.07;57.67;100120.38;1689193;84;21229;-63
2021/01/16 06:57:14;;;;;;;16.33;4.80;;;;;;;-13.99;57.06;100114.41;1689096;85;21288;-63
2021/01/16 06:59:42;;;;;;;13.40;4.73;;;;;;;-13.99;57.24;100122.30;1688814;85;21266;-63
2021/01/16 07:02:31;;;;;;;13.00;4.27;;;;;;;-13.89;57.03;100126.80;1688847;85;21260;-64
2021/01/16 07:05:04;;;;;;;14.20;4.43;;;;;;;-13.94;56.54;100122.14;1688669;85;21320;-64
2021/01/16 07:07:35;;;;;;;12.60;3.93;;;;;;;-13.97;56.84;100128.37;1688616;83;21802;-64
2021/01/16 07:10:20;;;;;;;11.47;4.40;;;;;;;-13.89;56.82;100134.24;1675497;84;21473;-65
2021/01/16 07:12:52;;;;;;;16.10;4.67;;;;;;;-13.79;56.68;100147.50;1723477;83;21448;-64
2021/01/16 07:15:21;;;;;;;18.53;4.27;;;;;;;-13.63;56.68;100144.38;1723379;83;21050;-65
2021/01/16 07:17:49;;;;;;;12.10;3.93;;;;;;;-13.59;55.91;100138.09;1723612;83;21253;-65
2021/01/16 07:20:16;;;;;;;12.93;4.03;;;;;;;-13.61;55.90;100140.78;1723638;83;21078;-65
2021/01/16 07:22:44;;;;;;;10.17;3.63;;;;;;;-13.61;55.82;100151.31;1691244;83;21345;-65
2021/01/16 07:25:15;;;;;;;14.27;4.17;;;;;;;-13.51;55.76;100151.39;1724001;83;21332;-64
2021/01/16 07:27:43;;;;;;;12.70;4.30;;;;;;;-13.46;55.71;100154.73;1723661;83;21445;-64
2021/01/16 07:30:12;;;;;;;16.40;5.20;;;;;;;-13.38;55.42;100163.69;1723719;83;21177;-65
2021/01/16 07:32:43;;;;;;;11.27;4.20;;;;;;;-13.34;55.58;100157.84;1723699;83;21055;-65
2021/01/16 07:35:16;;;;;;;11.67;3.83;;;;;;;-13.19;55.55;100169.16;1691183;84;21059;-65
2021/01/16 07:37:45;;;;;;;13.60;4.47;;;;;;;-13.16;54.96;100165.92;1691017;84;21378;-66
2021/01/16 07:40:21;;;;;;;11.40;3.83;;;;;;;-13.17;54.75;100156.78;1721533;83;21205;-65
2021/01/16 07:42:57;;;;;;;15.07;4.40;;;;;;;-13.15;54.28;100155.78;1723803;83;21809;-64
2021/01/16 07:45:37;;;;;;;10.67;4.70;;;;;;;-13.31;54.06;100164.33;1689408;84;21736;-65
2021/01/16 07:48:06;;;;;;;17.77;5.13;;;;;;;-13.41;54.20;100163.78;1689271;83;21292;-65
2021/01/16 07:50:37;;;;;;;13.60;4.33;;;;;;;-13.42;54.58;100169.11;1689276;83;21054;-65
2021/01/16 07:53:10;;;;;;;10.33;3.53;;;;;;;-13.29;54.71;100169.09;1689372;83;21122;-66
2021/01/16 07:55:46;;;;;;;16.73;5.30;;;;;;;-13.18;54.44;100170.42;1689276;83;21310;-66
2021/01/16 07:58:22;;;;;;;19.60;5.20;;;;;;;-13.12;54.49;100183.34;1689485;83;21783;-66
2021/01/16 08:01:37;;;;;;;13.10;3.87;;;;;;;-13.06;53.94;100177.45;1689422;83;21592;-65
2021/01/16 08:04:24;;;;;;;8.27;3.33;;;;;;;-13.03;53.96;100189.20;1689238;85;21330;-64
2021/01/16 08:07:08;;;;;;;12.33;3.25;;;;;;;-12.93;53.80;100173.03;1689317;83;21461;-63
2021/01/16 08:09:53;;;;;;;7.67;2.50;;;;;;;-12.89;53.30;100183.86;1684851;84;21137;-67
2021/01/16 08:12:24;;;;;;;14.10;4.27;;;;;;;-12.95;53.24;100173.55;1682128;84;21330;-66
2021/01/16 08:14:52;;;;;;;13.00;3.67;;;;;;;-12.90;53.53;100178.65;1682160;85;21045;-63
2021/01/16 08:17:27;;;;;;;10.07;3.93;;;;;;;-12.81;53.17;100180.48;1682128;84;21262;-64
2021/01/16 08:20:20;;;;;;;19.33;5.43;;;;;;;-12.86;53.06;100180.25;1682030;84;21749;-65
2021/01/16 08:22:53;;;;;;;14.03;5.07;;;;;;;-12.99;52.79;100184.25;1681790;84;21031;-64
2021/01/16 08:25:23;;;;;;;15.80;5.33;;;;;;;-12.98;52.97;100182.88;1682078;85;21091;-65
2021/01/16 08:27:57;;;;;;;16.27;4.80;;;;;;;-13.00;52.82;100184.72;1682026;84;21333;-66
2021/01/16 08:30:29;;;;;;;16.70;5.53;;;;;;;-13.07;52.91;100186.27;1682099;84;21189;-65
2021/01/16 08:33:05;;;;;;;17.13;5.30;;;;;;;-13.10;52.96;100183.30;1682126;84;21099;-64
2021/01/16 08:35:41;;;;;;;18.42;4.53;;;;;;;-13.17;53.22;100184.00;1682330;85;21340;-63
2021/01/16 08:38:20;;;;;;;13.83;3.73;;;;;;;-13.08;53.45;100187.20;1682345;84;21149;-64
2021/01/16 08:41:03;;;;;;;11.27;3.53;;;;;;;-12.90;53.09;100190.05;1682075;84;21976;-64
2021/01/16 08:43:36;;;;;;;13.63;3.57;;;;;;;-12.87;52.96;100185.13;1682083;84;21659;-65
2021/01/16 08:46:21;;;;;;;16.63;5.37;;;;;;;-12.78;52.79;100186.56;1682162;84;21099;-65
2021/01/16 08:49:17;;;;;;;13.43;4.67;;;;;;;-12.90;52.63;100178.65;1682122;84;21337;-66
2021/01/16 08:51:52;;;;;;;19.33;5.53;;;;;;;-12.83;52.95;100177.50;1682110;84;21214;-66
2021/01/16 08:54:23;;;;;;;12.03;4.33;;;;;;;-12.75;52.93;100181.17;1671203;84;21082;-65
2021/01/16 08:56:55;;;;;;;19.77;5.70;;;;;;;-12.81;52.84;100176.53;1682046;85;21071;-67
2021/01/16 08:59:33;;;;;;;18.67;5.93;;;;;;;-12.90;52.70;100179.50;1677032;84;21119;-65
2021/01/16 09:02:13;;;;;;;20.47;6.10;;;;;;;-12.92;52.92;100178.70;1677308;83;21408;-68
2021/01/16 09:04:42;;;;;;;17.30;5.07;;;;;;;-12.83;53.20;100182.32;1666968;85;21099;-68
2021/01/16 09:07:21;;;;;;;18.57;5.60;;;;;;;-12.68;52.42;100187.48;1660635;85;21313;-70
2021/01/16 09:10:00;;;;;;;20.37;6.13;;;;;;;-12.72;52.43;100183.23;1674850;83;21320;-71
2021/01/16 09:12:35;;;;;;;9.07;3.50;;;;;;;-12.68;52.45;100178.25;1690216;83;21078;-67
2021/01/16 09:15:24;;;;;;;19.40;4.73;;;;;;;-12.58;52.28;100178.30;1736594;81;21197;-69
2021/01/16 09:18:13;;;;;;;18.33;5.33;;;;;;;-12.64;51.85;100186.45;1681359;83;21086;-70
2021/01/16 09:20:56;;;;;;;13.00;3.97;;;;;;;-12.82;51.61;100176.13;1674920;84;21076;-68
2021/01/16 09:23:34;;;;;;;13.50;4.90;;;;;;;-12.82;51.85;100184.04;1713663;83;21956;-72
2021/01/16 09:26:09;;;;;;;16.27;3.90;;;;;;;-12.72;52.23;100174.47;1709055;83;21441;-66
2021/01/16 09:28:50;;;;;;;11.50;3.37;;;;;;;-12.57;51.99;100180.02;1724161;83;21038;-66
2021/01/16 09:31:31;;;;;;;13.70;4.00;;;;;;;-12.53;51.85;100174.17;1723000;83;21047;-65
2021/01/16 09:34:09;;;;;;;16.10;4.33;;;;;;;-12.55;51.35;100178.64;1723179;83;21329;-67
2021/01/16 09:37:00;;;;;;;;;;;;;;;-12.62;51.58;100181.97;1726245;81;21072;-69
2021/01/16 09:39:31;;;;;;;18.30;4.30;;;;;;;-12.69;51.58;100167.75;1742490;81;20514;-71
2021/01/16 09:42:03;;;;;;;16.67;5.23;;;;;;;-12.57;52.31;100172.56;1694405;84;21077;-67
2021/01/16 09:44:46;;;;;;;17.43;5.13;;;;;;;-12.43;51.88;100178.63;1678045;84;21780;-68
2021/01/16 09:47:32;;;;;;;12.53;4.43;;;;;;;-12.28;51.93;100180.70;1691066;84;21091;-66
2021/01/16 09:50:13;;;;;;;11.60;4.07;;;;;;;-12.21;50.88;100178.23;1676310;84;21043;-67
2021/01/16 09:52:54;;;;;;;17.37;4.00;;;;;;;-12.15;51.68;100177.98;1709336;84;21639;-67
2021/01/16 09:55:27;;;;;;;17.97;5.50;;;;;;;-11.98;51.58;100189.19;1674720;84;21123;-66
2021/01/16 09:57:54;;;;;;;13.27;4.53;;;;;;;-11.99;51.05;100179.09;1709403;84;21715;-65
2021/01/16 10:00:35;;;;;;;14.27;4.60;;;;;;;-12.03;51.13;100181.92;1709226;83;21392;-66
2021/01/16 10:03:08;;;;;;;21.57;5.00;;;;;;;-12.12;50.98;100177.86;1709332;84;21346;-65
2021/01/16 10:05:39;;;;;;;17.80;5.17;;;;;;;-12.15;51.44;100171.38;1674514;84;21783;-66
2021/01/16 10:08:07;;;;;;;16.37;4.53;;;;;;;-12.14;51.10;100176.20;1674684;84;21247;-70
2021/01/16 10:10:48;;;;;;;13.93;4.70;;;;;;;-12.11;51.56;100170.80;1733903;81;21098;-67
2021/01/16 10:13:30;;;;;;;16.20;4.47;;;;;;;-12.08;51.30;100172.86;1677361;85;21091;-70
2021/01/16 10:16:01;;;;;;;10.45;4.40;;;;;;;-12.05;51.56;100180.66;1646067;87;21087;-66
2021/01/16 10:18:29;;;;;;;15.70;4.10;;;;;;;-11.93;51.32;100162.99;1646440;85;21329;-67
2021/01/16 10:21:08;;;;;;;13.28;4.03;;;;;;;-11.79;51.04;100168.17;1646508;87;21240;-69
2021/01/16 10:23:43;;;;;;;12.30;3.97;;;;;;;-11.79;51.05;100155.82;1646590;87;21460;-72
2021/01/16 10:26:15;;;;;;;13.43;4.12;;;;;;;-11.75;51.33;100163.13;1646469;87;21103;-69
2021/01/16 10:29:06;;;;;;;11.90;4.03;;;;;;;-11.89;51.39;100169.88;1646621;86;21712;-68
2021/01/16 10:31:34;;;;;;;16.57;4.90;;;;;;;-11.81;52.16;100166.91;1646674;85;21875;-65
2021/01/16 10:34:10;;;;;;;15.93;5.08;;;;;;;-11.69;51.82;100168.19;1646624;87;21297;-66
2021/01/16 10:36:40;;;;;;;17.40;4.97;;;;;;;-11.58;51.78;100155.38;1646723;87;21334;-68
2021/01/16 10:39:11;;;;;;;12.95;4.72;;;;;;;-11.40;51.93;100154.59;1646474;87;21331;-66
2021/01/16 10:41:40;;;;;;;22.58;5.90;;;;;;;-11.24;51.24;100149.50;1646528;85;21099;-67
2021/01/16 10:44:14;;;;;;;18.62;6.92;;;;;;;-11.14;51.21;100151.28;1646611;87;21965;-65
2021/01/16 10:46:46;;;;;;;16.73;3.80;;;;;;;-11.13;51.35;100144.59;1646616;87;21083;-70
2021/01/16 10:49:28;;;;;;;9.13;3.30;;;;;;;-11.01;50.93;100147.20;1647604;87;21807;-66
2021/01/16 10:51:59;;;;;;;16.10;4.58;;;;;;;-10.98;49.98;100158.50;1646572;87;21076;-69
2021/01/16 10:54:26;;;;;;;14.60;4.22;;;;;;;-11.05;49.98;100146.47;1646702;85;21645;-71
2021/01/16 10:57:09;;;;;;;22.62;6.12;;;;;;;-10.94;50.06;100151.28;1646583;87;21726;-69
2021/01/16 10:59:40;;;;;;;8.88;3.83;;;;;;;-10.83;49.96;100142.86;1646546;86;21399;-69
2021/01/16 11:02:15;;;;;;;13.85;4.50;;;;;;;-10.62;49.84;100148.02;1647715;86;21537;-68
2021/01/16 11:04:48;;;;;;;12.33;4.35;;;;;;;-10.51;49.26;100147.99;1646700;87;21140;-68
2021/01/16 11:07:29;;;;;;;15.18;4.85;;;;;;;-10.44;49.31;100148.09;1652460;84;21109;-65
2021/01/16 11:10:14;;;;;;;13.95;4.67;;;;;;;-10.39;48.51;100143.48;1675710;83;21134;-65
2021/01/16 11:12:42;;;;;;;10.30;4.20;;;;;;;-10.49;48.51;100136.41;1689212;84;21291;-64
2021/01/16 11:15:27;;;;;;;13.55;5.12;;;;;;;-10.38;48.61;100141.22;1668241;84;21326;-64
2021/01/16 11:17:58;;;;;;;18.23;6.00;;;;;;;-10.30;48.58;100134.63;1692321;83;21077;-65
2021/01/16 11:20:34;;;;;;;21.37;7.20;;;;;;;-10.14;48.76;100133.39;1696350;83;21288;-65
2021/01/16 11:23:30;;;;;;;11.25;4.47;;;;;;;-9.92;48.56;100140.69;1668316;86;21260;-67
2021/01/16 11:26:02;;;;;;;13.50;4.20;;;;;;;-9.74;48.08;100140.28;1696208;83;21085;-66
2021/01/16 11:28:29;;;;;;;11.00;4.10;;;;;;;-9.72;48.20;100131.78;1665699;84;21073;-75
2021/01/16 11:31:06;;;;;;;13.68;4.47;;;;;;;-9.63;47.82;100137.09;1691822;83;21058;-68
2021/01/16 11:33:33;;;;;;;13.30;4.33;;;;;;;-9.69;47.82;100136.06;1675118;85;21388;-68
2021/01/16 11:36:14;;;;;;;14.55;4.50;;;;;;;-9.74;48.04;100146.05;1709307;84;21846;-74
2021/01/16 11:38:46;;;;;;;12.00;4.40;;;;;;;-9.64;48.00;100148.16;1710728;84;21946;-71
2021/01/16 11:41:35;;;;;;;11.75;4.10;;;;;;;-9.49;47.19;100138.57;1674727;84;21076;-70
2021/01/16 11:44:04;;;;;;;9.20;3.45;;;;;;;-9.50;46.29;100139.97;1653332;84;21100;-70
2021/01/16 11:46:31;;;;;;;8.78;3.45;;;;;;;-9.52;46.63;100149.33;1738812;82;21068;-69